Terminal Aerodrome Forecast
Issued by NWS

Home | Current Version | Previous Version | Text Only | Print | Product List | Glossary On
Versions: 1 2 3 4 5 6 7 8 9 10 11 12 13 14 15 16 17
860
FTAK31 PAJN 071725
TAFAJN
TAF
PAJN 071725Z 0718/0818 11009KT 1SM -SN SCT006 OVC015
     FM080400 11009KT 5SM BR SCT006 OVC030
     FM080600 11005KT P6SM SCT020 BKN040=

USA.gov is the U.S. government's official web portal to all federal, state and local government web resources and services.